createdAt,value
2022-11-08T00:00:44.214Z,80.00
2022-11-08T00:08:43.898Z,82.70
2022-11-08T00:16:28.306Z,80.50
2022-11-08T00:26:21.577Z,81.40
2022-11-08T00:28:49.686Z,81.70
2022-11-08T00:31:17.742Z,84.10
2022-11-08T00:33:47.263Z,81.60
2022-11-08T00:41:12.149Z,84.10
2022-11-08T00:48:37.024Z,83.80
2022-11-08T00:51:08.475Z,84.70
2022-11-08T00:53:38.565Z,84.20
2022-11-08T00:56:08.791Z,68.30
2022-11-08T00:58:36.993Z,82.50
2022-11-08T01:01:10.883Z,68.30
2022-11-08T01:06:10.643Z,82.40
2022-11-08T01:08:39.683Z,68.30
2022-11-08T01:11:10.556Z,81.60
2022-11-08T01:16:08.818Z,68.20
2022-11-08T01:18:37.581Z,81.40
2022-11-08T01:21:06.386Z,77.70
2022-11-08T01:23:36.611Z,68.40
2022-11-08T01:26:06.616Z,68.40
2022-11-08T01:28:34.962Z,82.30
2022-11-08T01:31:06.046Z,68.20
2022-11-08T01:33:34.976Z,68.40
2022-11-08T01:41:01.589Z,83.00
2022-11-08T01:43:41.675Z,82.20
2022-11-08T01:46:41.529Z,68.50
2022-11-08T01:49:43.428Z,71.40
2022-11-08T01:52:22.035Z,84.20
2022-11-08T01:54:58.007Z,68.50
2022-11-08T01:57:36.788Z,84.70
2022-11-08T02:00:08.312Z,81.50
2022-11-08T02:02:38.580Z,84.30
2022-11-08T02:05:24.699Z,83.70
2022-11-08T02:07:55.913Z,69.10
2022-11-08T02:10:27.460Z,83.50
2022-11-08T02:13:04.671Z,69.10
2022-11-08T02:15:33.228Z,84.00
2022-11-08T02:20:30.334Z,84.60
2022-11-08T02:23:10.243Z,69.60
2022-11-08T02:25:39.730Z,69.60
2022-11-08T02:30:37.080Z,84.40
2022-11-08T02:33:16.428Z,86.90
2022-11-08T02:35:47.538Z,85.20
2022-11-08T02:40:50.894Z,84.40
2022-11-08T02:53:14.802Z,83.70
2022-11-08T02:58:13.468Z,70.10
2022-11-08T03:03:10.499Z,85.00
2022-11-08T03:05:38.651Z,85.50
2022-11-08T03:13:06.055Z,70.30
2022-11-08T03:15:35.663Z,70.30
2022-11-08T03:23:03.870Z,70.60
2022-11-08T03:28:03.732Z,71.00
2022-11-08T03:33:01.849Z,71.00
2022-11-08T03:35:30.214Z,86.40
2022-11-08T03:38:00.705Z,71.20
2022-11-08T03:42:58.201Z,88.80
2022-11-08T03:50:24.484Z,71.30
2022-11-08T03:52:54.818Z,89.10
2022-11-08T03:55:28.719Z,71.40
2022-11-08T04:00:27.328Z,71.40
2022-11-08T04:05:25.642Z,71.60
2022-11-08T04:21:09.855Z,86.50
2022-11-08T04:23:38.620Z,71.30
2022-11-08T04:26:08.263Z,87.60
2022-11-08T04:28:37.913Z,71.40
2022-11-08T04:31:08.270Z,86.00
2022-11-08T04:36:10.178Z,71.00
2022-11-08T04:41:08.619Z,85.90
2022-11-08T04:46:06.973Z,71.30
2022-11-08T04:48:35.305Z,89.00
2022-11-08T04:51:06.463Z,71.40
2022-11-08T04:56:05.026Z,87.70
2022-11-08T04:58:36.852Z,88.90
2022-11-08T05:01:07.574Z,86.30
2022-11-08T05:06:08.626Z,71.40
2022-11-08T05:11:07.282Z,70.70
2022-11-08T05:16:06.392Z,71.20
2022-11-08T05:23:52.010Z,70.10
2022-11-08T05:26:21.247Z,70.60
2022-11-08T05:31:18.962Z,73.60
2022-11-08T05:36:16.822Z,71.10
2022-11-08T05:41:17.011Z,71.50
2022-11-08T05:43:47.518Z,71.90
2022-11-08T05:48:45.048Z,72.20
2022-11-08T05:58:50.100Z,87.50
2022-11-08T06:01:20.426Z,87.50
2022-11-08T06:03:49.322Z,72.30
2022-11-08T06:06:40.222Z,72.60
2022-11-08T06:09:17.407Z,72.60
2022-11-08T06:14:47.471Z,72.40
2022-11-08T06:17:17.132Z,72.60
2022-11-08T06:19:45.329Z,88.80
2022-11-08T06:22:29.635Z,72.40
2022-11-08T06:27:38.243Z,72.50
2022-11-08T06:30:14.558Z,72.70
2022-11-08T06:32:42.623Z,88.80
2022-11-08T06:38:01.180Z,72.60
2022-11-08T06:40:32.400Z,90.30
2022-11-08T06:43:01.079Z,90.60
2022-11-08T06:45:30.770Z,72.80
2022-11-08T06:47:59.609Z,72.90
2022-11-08T06:50:29.279Z,88.30
2022-11-08T06:52:58.028Z,73.10
2022-11-08T07:02:58.291Z,73.00
2022-11-08T07:05:28.005Z,87.80
2022-11-08T07:07:58.500Z,88.30
2022-11-08T07:10:29.521Z,72.60
2022-11-08T07:13:05.382Z,73.10
2022-11-08T07:15:34.809Z,72.60
2022-11-08T07:18:05.546Z,84.90
2022-11-08T07:23:02.678Z,72.70
2022-11-08T07:28:01.796Z,73.20
2022-11-08T07:30:30.795Z,73.30
2022-11-08T07:32:59.720Z,90.20
2022-11-08T07:35:29.490Z,72.90
2022-11-08T07:48:12.679Z,73.00
2022-11-08T07:50:43.260Z,73.00
2022-11-08T07:53:11.840Z,73.20
2022-11-08T07:55:40.422Z,88.20
2022-11-08T07:58:09.611Z,75.70
2022-11-08T08:00:39.199Z,90.20
2022-11-08T08:03:09.770Z,90.30
2022-11-08T08:05:40.586Z,73.00
2022-11-08T08:08:13.210Z,87.70
2022-11-08T08:13:14.305Z,73.10
2022-11-08T08:15:43.223Z,90.20
2022-11-08T08:18:13.719Z,72.70
2022-11-08T08:23:15.012Z,72.30
2022-11-08T08:28:14.734Z,72.10
2022-11-08T08:30:47.653Z,72.00
2022-11-08T08:33:34.978Z,71.80
2022-11-08T08:36:27.635Z,86.90
2022-11-08T08:39:36.165Z,70.50
2022-11-08T08:44:33.014Z,86.70
2022-11-08T08:50:16.027Z,70.60
2022-11-08T08:55:28.759Z,69.60
2022-11-08T09:08:47.232Z,76.90
2022-11-08T09:11:49.507Z,78.80
2022-11-08T09:17:29.105Z,61.20
2022-11-08T09:20:01.293Z,60.30
2022-11-08T09:25:02.474Z,70.30
2022-11-08T09:27:45.390Z,59.40
2022-11-08T09:33:00.805Z,59.30
2022-11-08T09:43:43.453Z,56.40
2022-11-08T09:46:13.030Z,72.10
2022-11-08T09:48:51.440Z,72.50
2022-11-08T09:51:24.426Z,57.50
2022-11-08T09:53:57.480Z,56.50
2022-11-08T09:56:36.438Z,56.70
2022-11-08T09:59:21.390Z,57.20
2022-11-08T10:01:50.681Z,57.50
2022-11-08T10:04:24.323Z,70.60
2022-11-08T10:07:04.891Z,58.90
2022-11-08T10:09:45.095Z,72.40
2022-11-08T10:12:24.504Z,60.30
2022-11-08T10:15:11.651Z,60.20
2022-11-08T10:18:02.628Z,61.40
2022-11-08T10:20:42.505Z,61.70
2022-11-08T10:23:22.802Z,61.00
2022-11-08T10:25:57.767Z,60.40
2022-11-08T10:28:33.723Z,61.20
2022-11-08T10:31:03.879Z,61.10
2022-11-08T10:33:36.187Z,60.60
2022-11-08T10:36:10.970Z,72.20
2022-11-08T10:38:48.257Z,60.50
2022-11-08T10:41:24.587Z,60.50
2022-11-08T10:43:58.475Z,73.30
2022-11-08T10:46:38.690Z,60.00
2022-11-08T10:49:23.656Z,60.50
2022-11-08T10:51:54.334Z,61.20
2022-11-08T10:54:46.360Z,61.60
2022-11-08T10:57:16.686Z,60.30
2022-11-08T10:59:46.224Z,60.00
2022-11-08T11:02:27.732Z,71.10
2022-11-08T11:05:21.969Z,60.00
2022-11-08T11:08:02.150Z,60.20
2022-11-08T11:10:32.772Z,59.40
2022-11-08T11:13:06.599Z,72.80
2022-11-08T11:15:37.796Z,57.40
2022-11-08T11:18:30.167Z,55.90
2022-11-08T11:21:02.423Z,56.80
2022-11-08T11:23:35.752Z,65.30
2022-11-08T11:26:04.333Z,65.50
2022-11-08T11:28:32.732Z,63.60
2022-11-08T11:31:10.055Z,48.50
2022-11-08T11:33:46.920Z,48.30
2022-11-08T11:36:20.572Z,47.40
2022-11-08T11:38:54.990Z,46.50
2022-11-08T11:42:05.321Z,46.10
2022-11-08T11:44:52.975Z,47.20
2022-11-08T11:47:30.536Z,47.00
2022-11-08T11:50:13.814Z,58.90
2022-11-08T11:55:25.449Z,58.30
2022-11-08T11:58:07.771Z,47.10
2022-11-08T12:00:42.703Z,47.50
2022-11-08T12:03:42.008Z,60.20
2022-11-08T12:06:38.234Z,48.00
2022-11-08T12:10:11.827Z,46.80
2022-11-08T12:14:30.426Z,46.60
2022-11-08T12:16:29.589Z,47.10
2022-11-08T12:20:02.306Z,46.70
2022-11-08T12:23:09.301Z,47.00
2022-11-08T12:25:42.660Z,46.80
2022-11-08T12:28:46.017Z,47.80
2022-11-08T12:31:26.577Z,47.50
2022-11-08T12:34:14.325Z,46.90
2022-11-08T12:37:55.229Z,47.70
2022-11-08T12:40:51.017Z,46.90
2022-11-08T12:44:26.089Z,46.00
2022-11-08T12:47:08.197Z,45.90
2022-11-08T12:49:51.458Z,45.70
2022-11-08T12:52:37.673Z,45.70
2022-11-08T12:55:17.940Z,56.90
2022-11-08T12:57:48.366Z,45.70
2022-11-08T13:00:20.300Z,56.80
2022-11-08T13:03:03.433Z,45.30
2022-11-08T13:05:34.539Z,56.20
2022-11-08T13:08:08.253Z,45.60
2022-11-08T13:10:47.886Z,45.20
2022-11-08T13:13:39.089Z,45.20
2022-11-08T13:16:27.254Z,45.50
2022-11-08T13:19:01.352Z,45.70
2022-11-08T13:21:47.602Z,57.50
2022-11-08T13:24:45.468Z,59.10
2022-11-08T13:27:39.097Z,55.90
2022-11-08T13:30:41.807Z,44.60
2022-11-08T13:33:29.493Z,55.30
2022-11-08T13:36:11.520Z,44.80
2022-11-08T13:43:44.316Z,44.80
2022-11-08T13:47:10.553Z,43.80
2022-11-08T13:53:02.720Z,42.60
2022-11-08T13:55:49.622Z,55.00
2022-11-08T13:58:32.361Z,43.20
2022-11-08T14:04:22.352Z,55.00
2022-11-08T14:06:58.339Z,56.00
2022-11-08T14:09:35.477Z,44.40
2022-11-08T14:12:12.884Z,56.50
2022-11-08T14:14:51.689Z,44.80
2022-11-08T14:17:53.101Z,56.20
2022-11-08T14:23:54.628Z,44.40
2022-11-08T14:26:31.509Z,45.30
2022-11-08T14:29:04.186Z,55.10
2022-11-08T14:31:36.194Z,44.30
2022-11-08T14:36:48.562Z,55.80
2022-11-08T14:39:32.207Z,45.00
2022-11-08T14:42:06.229Z,44.40
2022-11-08T14:44:36.748Z,44.90
2022-11-08T14:47:14.801Z,44.90
2022-11-08T14:50:03.311Z,45.10
2022-11-08T14:53:01.343Z,45.40
2022-11-08T14:55:45.965Z,45.50
2022-11-08T14:58:31.153Z,45.30
2022-11-08T15:03:41.507Z,47.00
2022-11-08T15:08:56.267Z,58.40
2022-11-08T15:11:29.714Z,45.90
2022-11-08T15:14:01.932Z,46.60
2022-11-08T15:16:40.350Z,45.90
2022-11-08T15:19:30.547Z,46.10
2022-11-08T15:22:00.470Z,46.10
2022-11-08T15:30:04.887Z,46.00
2022-11-08T15:32:45.206Z,46.30
2022-11-08T15:35:28.088Z,46.50
2022-11-08T15:38:10.113Z,58.60
2022-11-08T15:40:49.770Z,47.10
2022-11-08T15:43:40.138Z,59.90
2022-11-08T15:46:28.567Z,47.30
2022-11-08T15:48:58.826Z,48.70
2022-11-08T15:56:34.097Z,48.10
2022-11-08T16:04:01.156Z,64.10
2022-11-08T16:11:30.550Z,49.30
2022-11-08T16:16:47.618Z,50.90
2022-11-08T16:19:24.535Z,50.50
2022-11-08T16:22:01.621Z,51.20
2022-11-08T16:24:35.999Z,51.20
2022-11-08T16:27:07.695Z,51.90
2022-11-08T16:29:38.841Z,64.80
2022-11-08T16:32:11.782Z,67.60
2022-11-08T16:34:48.696Z,65.60
2022-11-08T16:42:30.954Z,53.20
2022-11-08T16:47:42.339Z,55.20
2022-11-08T16:50:18.661Z,53.80
2022-11-08T16:52:49.847Z,66.90
2022-11-08T16:55:23.262Z,54.40
2022-11-08T16:57:53.250Z,55.60
2022-11-08T17:00:22.075Z,68.10
2022-11-08T17:02:52.647Z,54.80
2022-11-08T17:05:30.617Z,68.10
2022-11-08T17:10:31.366Z,57.80
2022-11-08T17:13:01.182Z,55.70
2022-11-08T17:15:57.068Z,56.60
2022-11-08T17:25:52.364Z,69.50
2022-11-08T17:28:29.069Z,56.90
2022-11-08T17:33:32.279Z,72.50
2022-11-08T17:36:05.181Z,57.40
2022-11-08T17:38:37.391Z,57.20
2022-11-08T17:41:11.662Z,57.10
2022-11-08T17:43:41.664Z,69.80
2022-11-08T17:48:50.749Z,57.60
2022-11-08T17:53:49.015Z,70.50
2022-11-08T18:04:16.841Z,58.40
2022-11-08T18:09:48.450Z,59.30
2022-11-08T18:12:16.698Z,71.70
2022-11-08T18:14:53.832Z,58.90
2022-11-08T18:17:49.553Z,58.90
2022-11-08T18:20:18.935Z,72.30
2022-11-08T18:22:53.916Z,59.30
2022-11-08T18:25:31.153Z,59.70
2022-11-08T18:28:12.995Z,59.60
2022-11-08T18:30:47.996Z,59.70
2022-11-08T18:33:23.339Z,59.90
2022-11-08T18:36:06.881Z,75.30
2022-11-08T18:38:44.515Z,60.00
2022-11-08T18:41:17.691Z,60.10
2022-11-08T18:44:10.474Z,60.10
2022-11-08T18:46:43.230Z,60.00
2022-11-08T18:51:44.238Z,73.70
2022-11-08T18:54:21.648Z,74.10
2022-11-08T19:02:03.596Z,60.50
2022-11-08T19:04:44.829Z,61.10
2022-11-08T19:09:48.363Z,61.00
2022-11-08T19:14:55.910Z,74.40
2022-11-08T19:17:38.293Z,62.30
2022-11-08T19:20:08.613Z,62.30
2022-11-08T19:23:00.926Z,63.70
2022-11-08T19:28:23.042Z,60.70
2022-11-08T19:31:37.976Z,60.20
2022-11-08T19:34:22.373Z,60.40
2022-11-08T19:36:56.430Z,61.40
2022-11-08T19:39:32.089Z,60.70
2022-11-08T19:47:20.271Z,74.40
2022-11-08T19:49:56.456Z,61.40
2022-11-08T19:52:25.034Z,75.00
2022-11-08T19:55:01.895Z,74.40
2022-11-08T19:57:38.392Z,63.00
2022-11-08T20:00:29.073Z,62.70
2022-11-08T20:05:52.493Z,77.00
2022-11-08T20:11:03.383Z,76.30
2022-11-08T20:14:04.343Z,63.30
2022-11-08T20:16:43.088Z,63.80
2022-11-08T20:19:18.016Z,63.50
2022-11-08T20:21:47.661Z,79.80
2022-11-08T20:26:59.291Z,77.30
2022-11-08T20:32:03.763Z,76.70
2022-11-08T20:34:32.733Z,64.20
2022-11-08T20:37:04.861Z,79.50
2022-11-08T20:44:39.580Z,77.20
2022-11-08T20:47:10.836Z,76.10
2022-11-08T20:52:08.939Z,79.00
2022-11-08T20:59:40.769Z,76.70
2022-11-08T21:02:11.454Z,63.30
2022-11-08T21:10:13.580Z,76.70
2022-11-08T21:20:12.837Z,64.50
2022-11-08T21:22:42.308Z,78.60
2022-11-08T21:30:08.828Z,64.50
2022-11-08T21:35:05.998Z,64.10
2022-11-08T21:40:04.288Z,77.50
2022-11-08T21:45:09.059Z,77.60
2022-11-08T21:50:06.673Z,79.10
2022-11-08T21:55:04.792Z,76.80
2022-11-08T22:07:33.909Z,78.10
2022-11-08T22:12:35.165Z,63.00
2022-11-08T22:15:05.346Z,77.50
2022-11-08T22:20:04.334Z,64.60
2022-11-08T22:22:32.530Z,77.10
2022-11-08T22:25:11.249Z,64.40
2022-11-08T22:27:40.755Z,63.40
2022-11-08T22:30:15.508Z,63.20
2022-11-08T22:32:51.557Z,79.40
2022-11-08T22:35:25.857Z,77.40
2022-11-08T22:37:54.271Z,75.80
2022-11-08T22:42:52.961Z,62.60
2022-11-08T22:47:49.506Z,75.90
2022-11-08T22:50:18.228Z,78.60
2022-11-08T22:52:46.393Z,75.80
2022-11-08T22:57:44.133Z,75.60
2022-11-08T23:00:15.583Z,75.80
2022-11-08T23:02:43.926Z,75.90
2022-11-08T23:07:40.695Z,78.30
2022-11-08T23:10:09.703Z,78.30
2022-11-08T23:15:43.145Z,76.10
2022-11-08T23:26:51.415Z,78.50
2022-11-08T23:32:15.582Z,79.50
2022-11-08T23:42:40.819Z,78.40
2022-11-08T23:45:10.179Z,76.40
2022-11-08T23:47:39.793Z,76.60
2022-11-08T23:50:08.952Z,62.30
2022-11-08T23:52:37.433Z,76.40
2022-11-08T23:55:06.451Z,62.10
